Rondeau, Canada
Current Conditions -  °F | °C
As of 3:37 AM on Monday 24 Nov 2014 (Local Time) from CYCK Reporting Station
Light Rain Light Rain  
Wind Chill: 52°   Ceiling: 1900
Heat Index: 52°   Visibility: 5mi
Dew Point: 50°   Wind: 23mph
Humidity: 94%   Direction: 190°S
Pressure: 29.13"   Gusts: 32mph
Location:  42.28°N, 81.87°W
Report Text: CYCK 240837Z AUTO 19020G28KT 5SM -RA BR BKN019 BKN027 OVC034 11/10 A2913 RMK SLP866 DENSITY ALT 1200FT
Loading
Personal Weather Stations






























Interactive Weather Map New forecast layout! Learn more

10-Day Weather Forecast

Advertisements
Track Severe Weather on mobile